Weather at Seattle Tacoma International Airport

Public forecast

Using degrees Fahrenheit for public forecast. Weather courtesy of forecast.io.

Current aviation weather report (METAR) for Seattle Tacoma International Airport

Retrieved 2021/07/29 07:53 UTC (11 minutes ago):

KSEA 290753Z 02007KT 10SM CLR 21/12 A3008 RMK AO2 SLP188 T02060117 403110144

Aviation forecast (TAF) for Seattle Tacoma International Airport

Retrieved 2021/07/29 06:42 UTC (1 hour ago):

TAF KSEA 290540Z 2906/3012 01008KT P6SM FEW250 FM290900 VRB03KT P6SM FEW250 FM291900 33008KT P6SM SCT250